Time;durP1;ratioP1;P1;durP2;ratioP2;P2;SDS_P1;SDS_P2;PMS_P1;PMS_P2;Temp;Humidity;BMP_temperature;BMP_pressure;BME280_temperature;BME280_humidity;BME280_pressure;Samples;Min_cycle;Max_cycle;Signal;HPM_P1;HPM_P2
2024/02/10 03:10:18;;;;;;;3.53;0.90;;;9.50;99.90;;;;;;4833996;23;20295;-77
2024/02/10 03:12:48;;;;;;;0.40;0.40;;;9.40;99.90;;;;;;4927195;29;20064;-77
2024/02/10 03:15:15;;;;;;;0.75;0.75;;;9.50;99.90;;;;;;4913988;29;20477;-78
2024/02/10 03:17:46;;;;;;;0.52;0.50;;;9.40;99.90;;;;;;4914408;29;20648;-77
2024/02/10 03:20:13;;;;;;;0.50;0.50;;;9.40;99.90;;;;;;4909229;29;20381;-77
2024/02/10 03:22:39;;;;;;;1.80;0.98;;;9.40;99.90;;;;;;4911123;29;20046;-77
2024/02/10 03:25:06;;;;;;;1.33;1.23;;;9.40;99.90;;;;;;4923832;29;20039;-78
2024/02/10 03:27:32;;;;;;;0.70;0.70;;;9.40;99.90;;;;;;4913634;29;20416;-77
2024/02/10 03:30:00;;;;;;;0.20;0.20;;;9.40;99.90;;;;;;4906566;29;20032;-76
2024/02/10 03:32:27;;;;;;;0.52;0.52;;;9.40;99.90;;;;;;4923867;29;20031;-76
2024/02/10 03:34:53;;;;;;;0.90;0.88;;;9.40;99.90;;;;;;4923788;29;20024;-76
2024/02/10 03:37:19;;;;;;;2.45;1.35;;;9.40;99.90;;;;;;4926509;29;20032;-76
2024/02/10 03:39:45;;;;;;;0.70;0.57;;;9.40;99.90;;;;;;4922354;29;20036;-76
2024/02/10 03:42:11;;;;;;;2.15;1.92;;;9.40;99.90;;;;;;4900678;29;20147;-76
2024/02/10 03:44:38;;;;;;;5.32;1.27;;;9.40;99.90;;;;;;4926738;29;20425;-76
2024/02/10 03:47:09;;;;;;;0.32;0.32;;;9.40;99.90;;;;;;4928142;29;20036;-78
2024/02/10 03:49:35;;;;;;;1.65;0.80;;;9.40;99.90;;;;;;4914543;29;20044;-77
2024/02/10 03:52:01;;;;;;;0.50;0.50;;;9.40;99.90;;;;;;4904004;29;20052;-79
2024/02/10 03:54:27;;;;;;;1.27;1.17;;;9.40;99.90;;;;;;4926375;29;20035;-77
2024/02/10 03:56:54;;;;;;;0.90;0.90;;;9.30;99.90;;;;;;4929621;29;20048;-78
2024/02/10 03:59:20;;;;;;;0.85;0.85;;;9.40;99.90;;;;;;4915368;29;20040;-79
2024/02/10 04:01:46;;;;;;;0.32;0.32;;;9.40;99.90;;;;;;4902670;29;20200;-79
2024/02/10 04:04:13;;;;;;;0.45;0.43;;;9.40;99.90;;;;;;4919113;29;20031;-81
2024/02/10 04:06:40;;;;;;;0.25;0.25;;;9.40;99.90;;;;;;4914500;29;20027;-78
2024/02/10 04:09:07;;;;;;;0.65;0.45;;;9.40;99.90;;;;;;4910540;29;20043;-78
2024/02/10 04:11:34;;;;;;;0.75;0.43;;;9.30;99.90;;;;;;4921232;29;20079;-78
2024/02/10 04:14:00;;;;;;;2.58;1.20;;;9.30;99.90;;;;;;4901126;29;20484;-78
2024/02/10 04:16:27;;;;;;;0.98;0.98;;;9.30;99.90;;;;;;4916616;29;20044;-78
2024/02/10 04:18:53;;;;;;;0.40;0.40;;;9.30;99.90;;;;;;4916651;29;20036;-78
2024/02/10 04:21:20;;;;;;;1.25;1.00;;;9.20;99.90;;;;;;4915219;29;20407;-78
2024/02/10 04:23:46;;;;;;;0.50;0.40;;;9.20;99.90;;;;;;4913668;29;20036;-79
2024/02/10 04:26:13;;;;;;;1.25;0.82;;;9.20;99.90;;;;;;4911221;29;20036;-79
2024/02/10 04:28:39;;;;;;;1.35;0.95;;;9.10;99.90;;;;;;4914819;29;20044;-78
2024/02/10 04:31:05;;;;;;;1.13;0.63;;;9.10;99.90;;;;;;4915803;29;20043;-78
2024/02/10 04:33:31;;;;;;;0.30;0.30;;;9.10;99.90;;;;;;4895625;29;20047;-79
2024/02/10 04:35:57;;;;;;;0.57;0.43;;;9.00;99.90;;;;;;4915738;29;20040;-78
2024/02/10 04:38:24;;;;;;;0.90;0.85;;;9.00;99.90;;;;;;4915281;29;20047;-78
2024/02/10 04:40:53;;;;;;;1.33;0.60;;;8.90;99.90;;;;;;4915226;29;20043;-78
2024/02/10 04:43:19;;;;;;;0.45;0.40;;;8.90;99.90;;;;;;4915144;29;20059;-78
2024/02/10 04:45:48;;;;;;;2.10;1.08;;;8.80;99.90;;;;;;4901237;29;20040;-78
2024/02/10 04:48:17;;;;;;;1.63;1.25;;;8.70;99.90;;;;;;4907587;29;20051;-78
2024/02/10 04:50:44;;;;;;;0.75;0.60;;;8.60;99.90;;;;;;4915779;29;20035;-79
2024/02/10 04:53:10;;;;;;;1.73;0.85;;;8.50;99.90;;;;;;4922781;29;20043;-78
2024/02/10 04:55:41;;;;;;;0.60;0.60;;;8.40;99.90;;;;;;4904345;29;20040;-78
2024/02/10 04:58:07;;;;;;;;;;;8.40;99.90;;;;;;4921637;29;20436;-78
2024/02/10 05:00:33;;;;;;;1.25;1.17;;;8.30;99.90;;;;;;4917166;29;19910;-78
2024/02/10 05:03:02;;;;;;;0.15;0.15;;;8.30;99.90;;;;;;4908926;29;20067;-78
2024/02/10 05:05:29;;;;;;;0.15;0.15;;;8.20;99.90;;;;;;4904522;29;20040;-79
2024/02/10 05:07:58;;;;;;;0.73;0.73;;;8.10;99.90;;;;;;4903131;29;20036;-79
2024/02/10 05:10:25;;;;;;;1.50;0.60;;;8.00;99.90;;;;;;4929400;29;20032;-79
2024/02/10 05:12:52;;;;;;;0.73;0.55;;;7.90;99.90;;;;;;4932621;29;20068;-78
2024/02/10 05:15:22;;;;;;;0.40;0.40;;;7.80;99.90;;;;;;4942181;29;20027;-78
2024/02/10 05:17:50;;;;;;;1.77;1.27;;;7.80;99.90;;;;;;4922791;29;20036;-79
2024/02/10 05:20:22;;;;;;;2.55;1.55;;;7.70;99.90;;;;;;4909778;29;20047;-78
2024/02/10 05:22:53;;;;;;;0.77;0.77;;;7.70;99.90;;;;;;4934456;29;20035;-79
2024/02/10 05:25:21;;;;;;;0.65;0.65;;;7.60;99.90;;;;;;4941662;29;20044;-79
2024/02/10 05:27:48;;;;;;;0.50;0.50;;;7.60;99.90;;;;;;4946202;29;20035;-77
2024/02/10 05:30:20;;;;;;;1.17;1.00;;;7.50;99.90;;;;;;4938535;29;20464;-78
2024/02/10 05:32:49;;;;;;;3.28;1.27;;;7.50;99.90;;;;;;4933804;29;20063;-78
2024/02/10 05:35:19;;;;;;;0.77;0.55;;;7.40;99.90;;;;;;4942570;29;20059;-78
2024/02/10 05:37:54;;;;;;;0.70;0.70;;;7.40;99.90;;;;;;4922695;29;20476;-78
2024/02/10 05:40:21;;;;;;;0.85;0.85;;;7.30;99.90;;;;;;4918736;29;20405;-79
2024/02/10 05:42:50;;;;;;;0.75;0.75;;;7.20;99.90;;;;;;4934031;29;20066;-79
2024/02/10 05:45:19;;;;;;;1.10;1.00;;;7.10;99.90;;;;;;4928228;29;20047;-80
2024/02/10 05:47:47;;;;;;;0.68;0.65;;;7.10;99.90;;;;;;4941953;28;20039;-78
2024/02/10 05:50:17;;;;;;;0.40;0.40;;;7.00;99.90;;;;;;4919677;29;20036;-78
2024/02/10 05:52:51;;;;;;;0.40;0.40;;;6.90;99.90;;;;;;4927223;29;20043;-78
2024/02/10 05:55:25;;;;;;;0.43;0.43;;;6.80;99.90;;;;;;4931254;29;20043;-79
2024/02/10 05:58:01;;;;;;;0.52;0.52;;;6.80;99.90;;;;;;4933357;29;20035;-78
2024/02/10 06:00:28;;;;;;;0.50;0.50;;;6.80;99.90;;;;;;4930957;29;20062;-78
2024/02/10 06:02:55;;;;;;;0.35;0.35;;;6.70;99.90;;;;;;4950761;29;20413;-79
2024/02/10 06:05:22;;;;;;;1.25;0.70;;;6.60;99.90;;;;;;4918939;29;20062;-78
2024/02/10 06:07:49;;;;;;;0.20;0.20;;;6.70;99.90;;;;;;4941803;29;20040;-78
2024/02/10 06:10:15;;;;;;;3.50;2.35;;;6.70;99.90;;;;;;4939361;29;20039;-78
2024/02/10 06:12:45;;;;;;;2.42;2.22;;;6.60;99.90;;;;;;4917407;29;20496;-78
2024/02/10 06:15:12;;;;;;;0.57;0.57;;;6.60;99.90;;;;;;4936579;29;20048;-78
2024/02/10 06:17:44;;;;;;;0.77;0.77;;;6.50;99.90;;;;;;4922777;29;20060;-78
2024/02/10 06:20:14;;;;;;;3.20;0.50;;;6.50;99.90;;;;;;4931522;29;20036;-78
2024/02/10 06:22:42;;;;;;;0.65;0.45;;;6.40;99.90;;;;;;4919863;29;20048;-78
2024/02/10 06:25:12;;;;;;;1.15;0.77;;;6.40;99.90;;;;;;4922189;29;20054;-78
2024/02/10 06:27:41;;;;;;;1.63;0.93;;;6.40;99.90;;;;;;4936409;29;20059;-78
2024/02/10 06:30:12;;;;;;;0.17;0.17;;;6.40;99.90;;;;;;4945652;29;20041;-78
2024/02/10 06:32:39;;;;;;;0.55;0.55;;;6.30;99.90;;;;;;4923681;29;20515;-78
2024/02/10 06:35:08;;;;;;;0.55;0.55;;;6.20;99.90;;;;;;4937588;29;20038;-78
2024/02/10 06:37:42;;;;;;;0.45;0.45;;;6.20;99.90;;;;;;4917845;29;20047;-78
2024/02/10 06:40:13;;;;;;;0.40;0.40;;;6.10;99.90;;;;;;4944445;29;20039;-78
2024/02/10 06:42:42;;;;;;;0.40;0.30;;;6.10;99.90;;;;;;4941926;29;20051;-79
2024/02/10 06:45:15;;;;;;;0.47;0.47;;;6.10;99.90;;;;;;4938816;29;20035;-78
2024/02/10 06:47:43;;;;;;;0.50;0.50;;;6.10;99.90;;;;;;4921366;29;20369;-79
2024/02/10 06:50:14;;;;;;;0.40;0.40;;;6.10;99.90;;;;;;4914872;29;20043;-79
2024/02/10 06:52:41;;;;;;;;;;;6.00;99.90;;;;;;4947861;29;20050;-79
2024/02/10 06:55:12;;;;;;;0.65;0.65;;;6.10;99.90;;;;;;4932680;29;19918;-79
2024/02/10 06:57:43;;;;;;;0.40;0.40;;;6.10;99.90;;;;;;4951991;29;20483;-79
2024/02/10 07:00:10;;;;;;;0.52;0.52;;;6.10;99.90;;;;;;4936146;29;20050;-79
2024/02/10 07:02:42;;;;;;;0.43;0.43;;;6.10;99.90;;;;;;4936611;29;20481;-79
2024/02/10 07:05:13;;;;;;;0.40;0.40;;;6.10;99.90;;;;;;4918512;29;20066;-79
2024/02/10 07:07:41;;;;;;;0.52;0.52;;;6.10;99.90;;;;;;4928895;29;20032;-79
2024/02/10 07:10:19;;;;;;;0.30;0.30;;;6.20;99.90;;;;;;4948012;29;20404;-79
2024/02/10 07:12:47;;;;;;;0.80;0.77;;;6.20;99.90;;;;;;4927610;29;20067;-79
2024/02/10 07:15:18;;;;;;;0.85;0.60;;;6.10;99.90;;;;;;4915939;29;20480;-79
2024/02/10 07:17:46;;;;;;;1.77;1.17;;;6.20;99.90;;;;;;4900308;29;20044;-79
2024/02/10 07:20:20;;;;;;;0.63;0.63;;;6.20;99.90;;;;;;4913407;29;20040;-78
2024/02/10 07:22:50;;;;;;;1.23;1.05;;;6.30;99.90;;;;;;4924788;29;20469;-78
2024/02/10 07:25:16;;;;;;;0.50;0.50;;;6.30;99.90;;;;;;4905142;29;20052;-79
2024/02/10 07:27:46;;;;;;;0.95;0.85;;;6.40;99.90;;;;;;4913967;29;20401;-79
2024/02/10 07:30:14;;;;;;;0.75;0.75;;;6.40;99.90;;;;;;4923468;29;20048;-79
2024/02/10 07:32:40;;;;;;;1.23;1.13;;;6.40;99.90;;;;;;4910595;29;20138;-78
2024/02/10 07:35:07;;;;;;;6.57;1.48;;;6.40;99.90;;;;;;4923385;29;20027;-79
2024/02/10 07:37:34;;;;;;;0.68;0.65;;;6.40;99.90;;;;;;4898915;29;20043;-78
2024/02/10 07:40:00;;;;;;;0.45;0.45;;;6.40;99.90;;;;;;4916524;29;20028;-78
2024/02/10 07:42:27;;;;;;;0.75;0.75;;;6.50;99.90;;;;;;4904801;29;20040;-78
2024/02/10 07:44:55;;;;;;;1.33;1.23;;;6.50;99.90;;;;;;4906856;29;20389;-78
2024/02/10 07:47:30;;;;;;;0.75;0.73;;;6.60;99.90;;;;;;4902626;29;20118;-79
2024/02/10 07:49:58;;;;;;;0.60;0.60;;;6.60;99.90;;;;;;4917721;29;20059;-79
2024/02/10 07:52:31;;;;;;;23.73;2.08;;;6.60;99.90;;;;;;4916385;29;20043;-79
2024/02/10 07:54:57;;;;;;;5.30;1.92;;;6.70;99.90;;;;;;4916237;29;20668;-79
2024/02/10 07:57:24;;;;;;;1.67;1.58;;;6.60;99.90;;;;;;4911641;29;20039;-79
2024/02/10 07:59:56;;;;;;;1.83;1.73;;;6.70;99.90;;;;;;4915127;29;20043;-78
2024/02/10 08:02:26;;;;;;;2.28;0.73;;;6.70;99.90;;;;;;4915482;29;20425;-78
2024/02/10 08:04:56;;;;;;;0.93;0.85;;;6.70;99.90;;;;;;4922552;29;20043;-79
2024/02/10 08:07:27;;;;;;;3.83;0.60;;;6.80;99.90;;;;;;4927841;29;20043;-79
2024/02/10 08:09:53;;;;;;;0.93;0.93;;;6.90;99.90;;;;;;4915208;29;20035;-81
2024/02/10 08:12:25;;;;;;;0.40;0.32;;;7.00;99.90;;;;;;4929708;29;20055;-79
2024/02/10 08:14:56;;;;;;;1.10;0.75;;;7.00;99.90;;;;;;4947120;29;20031;-80
2024/02/10 08:17:26;;;;;;;1.75;1.65;;;7.10;99.90;;;;;;4944532;29;20080;-79
2024/02/10 08:19:56;;;;;;;1.13;1.05;;;7.10;99.90;;;;;;4947975;29;20032;-80
2024/02/10 08:22:23;;;;;;;1.95;0.73;;;7.10;99.90;;;;;;4930808;29;20052;-80
2024/02/10 08:24:51;;;;;;;1.52;1.13;;;7.30;99.90;;;;;;4937199;29;20044;-80
2024/02/10 08:27:18;;;;;;;1.95;1.75;;;7.50;99.90;;;;;;4933177;29;20039;-80
2024/02/10 08:29:45;;;;;;;0.77;0.77;;;7.70;99.90;;;;;;4940195;29;20469;-81
2024/02/10 08:32:16;;;;;;;1.17;1.15;;;7.80;99.90;;;;;;4937717;29;20032;-80
2024/02/10 08:34:45;;;;;;;1.00;0.90;;;8.00;99.90;;;;;;4951185;29;20066;-80
2024/02/10 08:37:12;;;;;;;0.43;0.43;;;8.20;99.90;;;;;;4946731;28;20283;-80
2024/02/10 08:39:43;;;;;;;4.13;0.98;;;8.40;99.90;;;;;;4925027;29;20039;-80
2024/02/10 08:42:14;;;;;;;0.50;0.50;;;8.50;99.90;;;;;;4932951;29;20048;-80
2024/02/10 08:44:41;;;;;;;;;;;8.60;99.90;;;;;;4928198;29;20035;-81
2024/02/10 08:47:07;;;;;;;1.58;1.48;;;8.80;99.90;;;;;;4935532;29;19911;-78
2024/02/10 08:49:40;;;;;;;3.50;1.83;;;8.90;99.90;;;;;;4926278;29;20043;-78
2024/02/10 08:52:15;;;;;;;1.17;1.10;;;9.10;99.90;;;;;;4931552;29;20040;-77
2024/02/10 08:54:43;;;;;;;0.50;0.50;;;9.10;99.90;;;;;;4935178;29;20070;-81
2024/02/10 08:57:13;;;;;;;1.98;1.80;;;9.10;99.90;;;;;;4935490;29;20043;-78
2024/02/10 08:59:45;;;;;;;0.60;0.60;;;9.10;99.90;;;;;;4910500;29;20397;-78
2024/02/10 09:02:12;;;;;;;0.82;0.77;;;9.10;99.90;;;;;;4930143;29;20295;-78
2024/02/10 09:04:38;;;;;;;1.55;1.45;;;9.10;99.90;;;;;;4934623;29;20054;-80
2024/02/10 09:07:06;;;;;;;1.05;1.05;;;9.20;99.90;;;;;;4932327;29;20050;-77
2024/02/10 09:09:33;;;;;;;7.82;1.55;;;9.20;99.90;;;;;;4924587;29;20035;-79
2024/02/10 09:11:59;;;;;;;0.57;0.57;;;9.30;99.90;;;;;;4944411;28;20055;-78
2024/02/10 09:14:26;;;;;;;0.80;0.80;;;9.40;99.90;;;;;;4940985;29;20035;-78
2024/02/10 09:16:52;;;;;;;0.85;0.85;;;9.40;99.90;;;;;;4931631;29;20055;-78
2024/02/10 09:19:19;;;;;;;1.95;0.77;;;9.40;99.90;;;;;;4948033;29;20469;-79
2024/02/10 09:21:54;;;;;;;0.17;0.17;;;9.40;99.90;;;;;;4925117;29;20038;-79
2024/02/10 09:24:23;;;;;;;1.10;1.02;;;9.40;99.90;;;;;;4925501;29;20051;-78
2024/02/10 09:26:49;;;;;;;2.50;1.95;;;9.40;99.90;;;;;;4922025;29;20035;-78
2024/02/10 09:29:16;;;;;;;0.90;0.88;;;9.50;99.90;;;;;;4935287;29;20043;-78
2024/02/10 09:31:46;;;;;;;0.57;0.55;;;9.50;99.90;;;;;;4944285;29;20042;-82
2024/02/10 09:34:12;;;;;;;0.63;0.63;;;9.50;99.90;;;;;;4939889;28;20036;-79
2024/02/10 09:36:42;;;;;;;2.83;1.27;;;9.60;99.90;;;;;;4932223;29;20063;-78
2024/02/10 09:39:12;;;;;;;1.63;1.38;;;9.50;99.90;;;;;;4940767;29;20046;-78
2024/02/10 09:41:40;;;;;;;0.43;0.43;;;9.50;99.90;;;;;;4931507;29;20048;-77
2024/02/10 09:44:10;;;;;;;1.80;1.60;;;9.60;99.90;;;;;;4937172;29;20383;-79
2024/02/10 09:46:36;;;;;;;0.65;0.65;;;9.60;99.90;;;;;;4942708;29;20042;-78
2024/02/10 09:49:13;;;;;;;0.85;0.85;;;9.60;99.90;;;;;;4933616;29;20750;-77
2024/02/10 09:51:42;;;;;;;1.00;0.82;;;9.70;99.90;;;;;;4939182;29;20035;-77
2024/02/10 09:54:10;;;;;;;1.50;1.00;;;9.70;99.90;;;;;;4934072;29;20485;-78
2024/02/10 09:56:36;;;;;;;3.42;1.10;;;9.80;99.90;;;;;;4934579;28;20500;-78
2024/02/10 09:59:03;;;;;;;1.15;1.00;;;10.00;99.90;;;;;;4937283;29;20047;-78
2024/02/10 10:01:37;;;;;;;3.83;1.63;;;10.10;99.90;;;;;;4936026;29;20043;-78
2024/02/10 10:04:10;;;;;;;0.77;0.77;;;10.30;99.90;;;;;;4920514;29;20047;-78
2024/02/10 10:06:43;;;;;;;1.40;1.30;;;10.20;99.90;;;;;;4911415;29;20044;-77
2024/02/10 10:09:15;;;;;;;2.17;1.92;;;10.30;99.90;;;;;;4930668;29;20031;-78
2024/02/10 10:11:43;;;;;;;0.95;0.95;;;10.30;99.90;;;;;;4940931;29;20059;-78
2024/02/10 10:14:10;;;;;;;3.05;1.80;;;10.20;99.90;;;;;;4933315;29;20043;-78
2024/02/10 10:16:36;;;;;;;1.63;1.42;;;10.30;99.90;;;;;;4936660;29;20055;-78
2024/02/10 10:19:03;;;;;;;0.43;0.43;;;10.40;99.90;;;;;;4939468;29;20036;-78
2024/02/10 10:21:34;;;;;;;2.22;1.98;;;10.30;99.90;;;;;;4930463;29;20445;-78
2024/02/10 10:24:01;;;;;;;0.52;0.52;;;10.40;99.90;;;;;;4948775;28;20407;-78
2024/02/10 10:26:27;;;;;;;1.95;1.00;;;10.50;99.90;;;;;;4921010;29;20477;-78
2024/02/10 10:28:55;;;;;;;1.48;1.38;;;10.40;99.90;;;;;;4935761;29;20032;-78
2024/02/10 10:31:22;;;;;;;0.70;0.70;;;10.50;99.90;;;;;;4943034;29;20039;-79
2024/02/10 10:33:49;;;;;;;1.83;1.08;;;10.60;99.90;;;;;;4951575;28;20054;-79
2024/02/10 10:36:16;;;;;;;1.92;1.83;;;10.70;99.90;;;;;;4947161;29;20046;-79
2024/02/10 10:38:44;;;;;;;1.48;1.02;;;10.80;96.00;;;;;;4949595;29;20036;-78
2024/02/10 10:41:12;;;;;;;1.17;0.90;;;10.70;1.00;;;;;;4918758;29;20044;-79
2024/02/10 10:43:43;;;;;;;2.80;2.17;;;10.80;1.00;;;;;;4945137;29;20055;-78
2024/02/10 10:46:16;;;;;;;4.03;1.40;;;10.80;1.00;;;;;;4936884;29;20031;-79
2024/02/10 10:48:49;;;;;;;1.23;1.00;;;10.90;1.00;;;;;;4931183;29;20039;-79
2024/02/10 10:51:25;;;;;;;0.55;0.55;;;10.90;1.00;;;;;;4922325;29;20036;-79
2024/02/10 10:53:52;;;;;;;1.92;1.27;;;11.00;1.00;;;;;;4946428;29;20050;-79
2024/02/10 10:56:23;;;;;;;1.38;1.27;;;11.10;1.00;;;;;;4949357;29;20485;-80
2024/02/10 10:58:58;;;;;;;1.35;1.05;;;11.20;1.00;;;;;;4944077;29;20042;-79
2024/02/10 11:01:26;;;;;;;2.20;1.50;;;11.20;99.90;;;;;;4913678;29;20054;-79
2024/02/10 11:03:54;;;;;;;1.80;1.65;;;11.20;99.90;;;;;;4938348;29;20476;-79
2024/02/10 11:06:22;;;;;;;1.80;1.65;;;11.20;99.90;;;;;;4935760;29;20044;-80
2024/02/10 11:08:53;;;;;;;2.85;2.05;;;11.20;99.90;;;;;;4928365;29;20047;-79
2024/02/10 11:11:19;;;;;;;;;;;11.30;99.90;;;;;;4924747;29;20050;-79
2024/02/10 11:13:46;;;;;;;0.85;0.80;;;11.30;99.90;;;;;;4941870;28;19914;-79
2024/02/10 11:16:14;;;;;;;1.98;1.50;;;11.40;99.90;;;;;;4923318;29;20058;-77
2024/02/10 11:19:02;;;;;;;1.83;1.15;;;11.40;99.90;;;;;;4937016;29;20027;-79
2024/02/10 11:21:30;;;;;;;1.42;1.33;;;11.30;99.90;;;;;;4927117;29;20043;-78
2024/02/10 11:23:57;;;;;;;1.08;0.98;;;11.30;99.90;;;;;;4919871;29;20050;-78
2024/02/10 11:26:28;;;;;;;2.13;1.92;;;11.30;99.90;;;;;;4918362;29;20054;-79
2024/02/10 11:28:59;;;;;;;1.23;1.20;;;11.30;99.90;;;;;;4927716;29;20043;-79
2024/02/10 11:31:25;;;;;;;1.02;0.95;;;11.20;99.90;;;;;;4934988;29;20031;-79
2024/02/10 11:33:51;;;;;;;1.08;1.05;;;11.30;99.90;;;;;;4935881;29;20040;-81
2024/02/10 11:36:19;;;;;;;1.95;1.05;;;11.30;99.90;;;;;;4939782;29;20032;-79
2024/02/10 11:38:46;;;;;;;0.80;0.80;;;11.30;99.90;;;;;;4927187;29;20044;-78
2024/02/10 11:41:13;;;;;;;0.82;0.57;;;11.40;99.90;;;;;;4930636;29;20050;-79
2024/02/10 11:43:39;;;;;;;1.00;1.00;;;11.30;99.90;;;;;;4918701;29;20465;-77
2024/02/10 11:46:08;;;;;;;1.13;1.02;;;11.30;99.90;;;;;;4944450;29;20036;-79
2024/02/10 11:48:34;;;;;;;1.55;1.45;;;11.30;99.90;;;;;;4941713;29;20066;-79
2024/02/10 11:51:02;;;;;;;2.35;1.92;;;11.20;99.90;;;;;;4953712;29;20035;-79
2024/02/10 11:53:28;;;;;;;1.17;1.02;;;11.10;99.90;;;;;;4932397;29;20044;-78
2024/02/10 11:55:54;;;;;;;0.80;0.80;;;11.00;99.90;;;;;;4943897;28;20028;-80
2024/02/10 11:58:23;;;;;;;0.77;0.75;;;11.00;99.90;;;;;;4951916;29;20039;-81
2024/02/10 12:00:49;;;;;;;2.03;1.55;;;11.10;99.90;;;;;;4934263;29;20036;-79
2024/02/10 12:03:18;;;;;;;1.05;0.68;;;11.10;99.90;;;;;;4947190;29;20036;-79
2024/02/10 12:05:46;;;;;;;1.30;1.13;;;11.10;99.90;;;;;;4923847;29;20043;-79
2024/02/10 12:08:12;;;;;;;0.52;0.52;;;11.10;99.90;;;;;;4912804;29;20051;-79
2024/02/10 12:10:39;;;;;;;2.58;1.90;;;11.10;99.90;;;;;;4916594;29;20396;-80
2024/02/10 12:13:09;;;;;;;1.83;1.63;;;11.10;99.90;;;;;;4931568;29;20043;-79
2024/02/10 12:15:38;;;;;;;3.83;1.35;;;11.00;99.90;;;;;;4926010;29;20052;-81
2024/02/10 12:18:06;;;;;;;34.30;2.47;;;11.00;99.90;;;;;;4921738;29;20036;-79
2024/02/10 12:20:37;;;;;;;1.38;1.27;;;10.90;99.90;;;;;;4935735;29;20054;-82
2024/02/10 12:23:04;;;;;;;1.15;1.02;;;10.90;99.90;;;;;;4915918;29;20044;-82
2024/02/10 12:25:30;;;;;;;1.05;0.95;;;10.90;1.00;;;;;;4937582;29;20533;-83
2024/02/10 12:27:57;;;;;;;1.30;1.08;;;11.00;1.00;;;;;;4932572;29;20047;-82
2024/02/10 12:30:23;;;;;;;1.15;1.00;;;10.90;1.00;;;;;;4947931;29;20046;-81
2024/02/10 12:32:51;;;;;;;0.45;0.40;;;10.90;1.00;;;;;;4935780;29;20042;-81
2024/02/10 12:35:19;;;;;;;1.88;1.10;;;10.90;1.00;;;;;;4941066;29;20040;-81
2024/02/10 12:37:47;;;;;;;0.63;0.63;;;10.90;1.00;;;;;;4938717;29;20039;-82
2024/02/10 12:40:21;;;;;;;2.42;1.42;;;10.90;1.00;;;;;;4922785;29;20050;-82
2024/02/10 12:42:47;;;;;;;1.90;1.75;;;10.90;1.00;;;;;;4918540;29;20040;-81
2024/02/10 12:45:16;;;;;;;1.17;1.00;;;10.90;1.00;;;;;;4923864;29;20077;-79
2024/02/10 12:47:45;;;;;;;1.05;0.85;;;10.90;1.00;;;;;;4940007;29;20085;-82
2024/02/10 12:50:12;;;;;;;1.80;1.08;;;11.00;1.00;;;;;;4944413;29;20042;-81
2024/02/10 12:52:39;;;;;;;3.65;2.00;;;11.10;1.00;;;;;;4949003;29;20318;-81
2024/02/10 12:55:13;;;;;;;1.50;1.10;;;11.10;1.00;;;;;;4932357;29;20054;-80
2024/02/10 12:57:40;;;;;;;1.85;1.30;;;11.10;1.00;;;;;;4908897;29;20040;-81
2024/02/10 13:00:22;;;;;;;1.15;1.08;;;11.00;1.00;;;;;;4939977;29;20035;-80
2024/02/10 13:02:52;;;;;;;1.70;1.02;;;11.00;1.00;;;;;;4929072;29;20440;-80
2024/02/10 13:05:25;;;;;;;2.50;0.95;;;11.00;99.90;;;;;;4946779;29;20043;-81
2024/02/10 13:07:53;;;;;;;1.02;1.02;;;11.00;99.90;;;;;;4942121;29;20050;-81
2024/02/10 13:10:20;;;;;;;1.33;1.13;;;11.00;1.00;;;;;;4925090;29;20031;-80
2024/02/10 13:12:51;;;;;;;2.75;1.42;;;10.90;1.00;;;;;;4935230;29;20058;-81
2024/02/10 13:15:17;;;;;;;;;;;10.90;1.00;;;;;;4934640;29;20054;-82
2024/02/10 13:17:48;;;;;;;2.28;0.77;;;11.00;1.00;;;;;;4933819;29;19917;-82
2024/02/10 13:20:18;;;;;;;1.52;0.82;;;11.00;1.00;;;;;;4940272;29;20472;-81
2024/02/10 13:22:45;;;;;;;0.93;0.85;;;11.10;1.00;;;;;;4909969;29;20393;-79
2024/02/10 13:25:11;;;;;;;0.50;0.50;;;11.10;99.90;;;;;;4936963;29;20039;-81
2024/02/10 13:27:37;;;;;;;1.38;1.27;;;11.10;99.90;;;;;;4934337;29;20047;-82
2024/02/10 13:30:08;;;;;;;5.20;1.67;;;11.20;1.00;;;;;;4928707;29;20484;-81
2024/02/10 13:32:38;;;;;;;0.95;0.68;;;11.20;99.90;;;;;;4951590;28;20035;-81
2024/02/10 13:35:06;;;;;;;1.65;0.88;;;11.20;99.90;;;;;;4937369;29;20039;-81
2024/02/10 14:02:58;;;;;;;0.95;0.77;;;11.60;99.90;;;;;;4946098;29;20028;-81
2024/02/10 14:05:00;;;;;;;0.60;0.60;;;11.60;99.90;;;;;;4927697;29;20062;-80
2024/02/10 14:08:32;;;;;;;0.60;0.60;;;11.70;99.90;;;;;;4928168;29;20039;-80
2024/02/10 14:12:44;;;;;;;0.60;0.60;;;11.60;99.90;;;;;;4931682;29;20055;-79
2024/02/10 14:15:17;;;;;;;1.70;1.48;;;11.70;99.90;;;;;;4952704;29;20046;-80
2024/02/10 14:17:45;;;;;;;1.65;0.93;;;11.70;99.90;;;;;;4938507;29;20031;-79
2024/02/10 14:20:18;;;;;;;0.57;0.57;;;11.70;99.90;;;;;;4921828;29;20047;-78
2024/02/10 14:22:55;;;;;;;0.88;0.68;;;11.70;99.90;;;;;;4946877;29;20387;-81
2024/02/10 14:25:29;;;;;;;1.05;0.95;;;11.70;99.90;;;;;;4932704;29;20031;-80
2024/02/10 14:28:10;;;;;;;1.48;1.38;;;11.70;99.90;;;;;;4933578;29;20503;-81
2024/02/10 14:30:39;;;;;;;4.40;0.95;;;11.80;99.90;;;;;;4919847;29;20059;-82
2024/02/10 14:33:09;;;;;;;1.27;1.20;;;11.80;99.90;;;;;;4936942;29;20519;-78
2024/02/10 14:35:49;;;;;;;2.08;1.02;;;11.70;99.90;;;;;;4926425;29;20051;-81
2024/02/10 14:38:48;;;;;;;0.57;0.50;;;11.70;99.90;;;;;;4942172;29;20039;-80
2024/02/10 14:41:15;;;;;;;0.63;0.63;;;11.70;99.90;;;;;;4950346;28;20036;-80
2024/02/10 14:43:41;;;;;;;2.42;1.38;;;11.70;99.90;;;;;;4929182;29;20047;-81
2024/02/10 14:46:08;;;;;;;1.65;1.50;;;11.70;99.90;;;;;;4931725;29;20039;-82
2024/02/10 14:48:41;;;;;;;1.92;1.10;;;11.70;99.90;;;;;;4951829;29;20065;-82
2024/02/10 14:51:10;;;;;;;0.65;0.35;;;11.70;99.90;;;;;;4952307;28;20040;-82
2024/02/10 14:53:38;;;;;;;1.85;1.45;;;11.80;99.90;;;;;;4936407;29;20027;-83
2024/02/10 14:56:09;;;;;;;1.50;1.05;;;11.80;99.90;;;;;;4948010;29;20392;-81
2024/02/10 14:58:36;;;;;;;0.85;0.60;;;11.70;99.90;;;;;;4939310;29;20062;-80
2024/02/10 15:01:04;;;;;;;12.65;1.35;;;11.70;99.90;;;;;;4948547;29;20028;-83
2024/02/10 15:03:36;;;;;;;1.60;1.50;;;11.70;99.90;;;;;;4929844;29;20035;-81
2024/02/10 15:06:03;;;;;;;6.57;1.02;;;11.80;99.90;;;;;;4948776;29;20109;-85
2024/02/10 15:08:30;;;;;;;1.65;1.38;;;11.80;99.90;;;;;;4941630;29;20050;-82
2024/02/10 15:10:56;;;;;;;2.92;0.80;;;11.80;99.90;;;;;;4955922;29;20038;-80
2024/02/10 15:13:23;;;;;;;3.67;1.20;;;11.80;99.90;;;;;;4917907;29;20238;-81
2024/02/10 15:15:51;;;;;;;3.13;1.27;;;11.80;99.90;;;;;;4914487;29;20043;-80
2024/02/10 15:18:18;;;;;;;0.50;0.45;;;11.80;99.90;;;;;;4924903;29;20040;-81
2024/02/10 15:20:49;;;;;;;1.85;0.85;;;11.80;1.00;;;;;;4936787;29;20047;-82
2024/02/10 15:23:19;;;;;;;0.30;0.30;;;11.80;99.90;;;;;;4918494;29;20058;-82
2024/02/10 15:25:46;;;;;;;1.20;0.93;;;11.80;99.90;;;;;;4932021;29;20043;-81
2024/02/10 15:28:18;;;;;;;0.40;0.35;;;11.80;99.90;;;;;;4924664;29;20044;-82
2024/02/10 15:30:51;;;;;;;0.98;0.93;;;11.80;99.90;;;;;;4918270;29;20047;-81
2024/02/10 15:33:19;;;;;;;1.48;0.82;;;11.80;99.90;;;;;;4930701;29;20047;-82
2024/02/10 15:35:47;;;;;;;0.80;0.68;;;11.80;99.90;;;;;;4927995;29;20472;-82
2024/02/10 15:38:16;;;;;;;0.77;0.77;;;11.80;99.90;;;;;;4942982;29;20039;-82
2024/02/10 15:40:47;;;;;;;0.50;0.50;;;11.80;99.90;;;;;;4947105;28;20051;-82
2024/02/10 15:43:13;;;;;;;0.70;0.65;;;11.80;99.90;;;;;;4941649;29;20032;-82
2024/02/10 15:45:43;;;;;;;2.42;1.65;;;11.80;99.90;;;;;;4925224;29;20059;-83
2024/02/10 15:48:10;;;;;;;0.30;0.30;;;11.70;99.90;;;;;;4955201;29;20468;-83
2024/02/10 15:50:41;;;;;;;0.75;0.73;;;11.70;99.90;;;;;;4925885;29;20043;-84
2024/02/10 15:53:07;;;;;;;0.25;0.25;;;11.70;99.90;;;;;;4924962;29;20365;-83
2024/02/10 15:55:33;;;;;;;2.00;1.48;;;11.70;99.90;;;;;;4919863;29;20047;-82
2024/02/10 15:58:01;;;;;;;0.35;0.35;;;11.70;99.90;;;;;;4935929;29;20373;-81
2024/02/10 16:00:28;;;;;;;1.08;0.98;;;11.60;99.90;;;;;;4923434;29;20040;-81
2024/02/10 16:02:54;;;;;;;1.02;0.88;;;11.60;99.90;;;;;;4913988;29;20051;-82
2024/02/10 16:05:21;;;;;;;2.67;1.33;;;11.60;1.00;;;;;;4917683;29;20055;-82
2024/02/10 16:07:51;;;;;;;0.65;0.65;;;11.50;1.00;;;;;;4918423;29;20056;-81
2024/02/10 16:10:22;;;;;;;0.57;0.57;;;11.50;1.00;;;;;;4917101;29;20051;-83
2024/02/10 16:12:51;;;;;;;6.97;2.50;;;11.50;1.00;;;;;;4903928;29;20457;-82
2024/02/10 16:15:22;;;;;;;3.22;1.63;;;11.50;1.00;;;;;;4927049;29;20084;-82
2024/02/10 16:17:50;;;;;;;;;;;11.40;1.00;;;;;;4903320;29;20044;-81
2024/02/10 16:20:21;;;;;;;0.95;0.70;;;11.30;1.00;;;;;;4914840;29;19955;-81
2024/02/10 16:22:53;;;;;;;1.55;0.73;;;11.30;1.00;;;;;;4937316;29;20051;-80
2024/02/10 16:25:23;;;;;;;0.65;0.65;;;11.30;1.00;;;;;;4901668;29;20063;-80
2024/02/10 16:27:53;;;;;;;0.75;0.75;;;11.20;1.00;;;;;;4918623;29;20230;-81
2024/02/10 16:30:20;;;;;;;0.53;0.50;;;11.20;1.00;;;;;;4918337;29;20048;-81
2024/02/10 16:32:50;;;;;;;0.20;0.20;;;11.10;1.00;;;;;;4936396;29;20035;-82
2024/02/10 16:35:20;;;;;;;0.65;0.65;;;11.10;1.00;;;;;;4942855;29;20047;-81
2024/02/10 16:37:51;;;;;;;0.60;0.60;;;11.00;1.00;;;;;;4937583;29;20384;-81
2024/02/10 16:40:20;;;;;;;0.73;0.73;;;11.00;1.00;;;;;;4941707;29;20034;-81